Time;durP1;ratioP1;P1;durP2;ratioP2;P2;SDS_P1;SDS_P2;PMS_P1;PMS_P2;Temp;Humidity;BMP_temperature;BMP_pressure;BME280_temperature;BME280_humidity;BME280_pressure;Samples;Min_cycle;Max_cycle;Signal;HPM_P1;HPM_P2
2022/08/27 00:01:15;;;;;;;1.00;0.90;;;23.30;54.10;;;;;;5013423;28;20120;-81
2022/08/27 00:03:43;;;;;;;1.45;1.00;;;23.20;54.20;;;;;;5029957;28;20084;-82
2022/08/27 00:06:13;;;;;;;0.85;0.85;;;23.30;54.20;;;;;;5028705;28;20022;-82
2022/08/27 00:08:44;;;;;;;1.88;0.98;;;23.20;54.20;;;;;;5025252;28;20029;-81
2022/08/27 00:11:11;;;;;;;1.75;1.10;;;23.20;54.20;;;;;;5043176;28;20796;-81
2022/08/27 00:13:38;;;;;;;1.60;1.05;;;23.20;54.20;;;;;;5030240;28;20036;-82
2022/08/27 00:16:07;;;;;;;1.58;1.10;;;23.10;54.20;;;;;;5029865;28;20033;-82
2022/08/27 00:18:34;;;;;;;1.13;1.00;;;23.10;54.30;;;;;;5010287;28;20148;-82
2022/08/27 00:21:01;;;;;;;1.13;0.82;;;23.10;54.30;;;;;;5026635;28;20050;-81
2022/08/27 00:23:27;;;;;;;1.80;1.00;;;23.10;54.30;;;;;;5023585;28;20028;-84
2022/08/27 00:25:53;;;;;;;1.08;0.90;;;23.00;54.30;;;;;;5011236;28;20033;-81
2022/08/27 00:28:19;;;;;;;2.45;1.10;;;23.00;54.30;;;;;;5028660;28;20033;-81
2022/08/27 00:30:45;;;;;;;2.13;1.33;;;23.00;54.30;;;;;;5012499;28;20029;-81
2022/08/27 00:33:11;;;;;;;1.60;1.10;;;22.90;54.30;;;;;;5012275;28;20033;-82
2022/08/27 00:35:37;;;;;;;1.35;1.02;;;22.90;54.30;;;;;;5027155;28;20403;-83
2022/08/27 00:38:04;;;;;;;1.67;1.20;;;22.90;54.30;;;;;;4994964;28;20187;-82
2022/08/27 00:40:32;;;;;;;1.13;1.00;;;22.90;54.40;;;;;;5027926;28;20029;-82
2022/08/27 00:43:01;;;;;;;2.03;1.20;;;22.90;54.40;;;;;;5008307;28;20037;-81
2022/08/27 00:45:31;;;;;;;1.60;1.02;;;22.90;54.40;;;;;;5008298;28;20056;-82
2022/08/27 00:47:59;;;;;;;1.23;1.02;;;22.80;54.40;;;;;;5030159;28;20053;-82
2022/08/27 00:50:31;;;;;;;1.30;1.13;;;22.80;54.40;;;;;;4999802;28;20018;-83
2022/08/27 00:53:02;;;;;;;1.25;1.15;;;22.80;54.50;;;;;;5027067;28;20080;-82
2022/08/27 00:55:34;;;;;;;2.05;1.35;;;22.70;54.50;;;;;;5026018;28;20452;-81
2022/08/27 00:58:22;;;;;;;1.25;1.00;;;22.70;54.50;;;;;;5027686;28;20087;-81
2022/08/27 01:00:48;;;;;;;1.33;1.10;;;22.70;55.30;;;;;;5024431;28;20056;-82
2022/08/27 01:03:14;;;;;;;1.33;1.05;;;22.70;54.50;;;;;;5028786;28;20029;-82
2022/08/27 01:05:42;;;;;;;2.05;1.02;;;22.60;54.50;;;;;;5027592;28;20037;-81
2022/08/27 01:08:16;;;;;;;1.10;1.00;;;22.60;54.60;;;;;;5026442;28;20585;-83
2022/08/27 01:10:43;;;;;;;1.27;1.00;;;22.60;54.60;;;;;;5021618;28;20210;-80
2022/08/27 01:13:13;;;;;;;0.73;0.73;;;22.60;54.60;;;;;;5027327;28;20021;-82
2022/08/27 01:15:40;;;;;;;1.23;1.10;;;22.50;54.60;;;;;;5010732;28;20033;-82
2022/08/27 01:18:07;;;;;;;1.13;0.88;;;22.50;54.60;;;;;;5025199;28;20033;-82
2022/08/27 01:20:56;;;;;;;1.90;1.10;;;22.50;54.70;;;;;;5025057;28;20478;-84
2022/08/27 01:23:27;;;;;;;1.85;1.40;;;22.50;54.80;;;;;;5004711;28;20046;-82
2022/08/27 01:25:53;;;;;;;1.20;1.10;;;22.40;54.70;;;;;;5029298;28;20573;-83
2022/08/27 01:28:20;;;;;;;1.17;1.10;;;22.40;54.70;;;;;;5012837;28;20579;-83
2022/08/27 01:30:47;;;;;;;2.22;1.33;;;22.40;54.80;;;;;;5022812;28;20025;-83
2022/08/27 01:33:16;;;;;;;0.80;0.80;;;22.40;54.80;;;;;;5001793;28;20381;-82
2022/08/27 01:35:46;;;;;;;1.38;1.10;;;22.40;54.90;;;;;;5025438;28;20547;-81
2022/08/27 01:38:12;;;;;;;1.85;1.40;;;22.40;54.90;;;;;;5027863;28;20089;-82
2022/08/27 01:40:38;;;;;;;1.88;1.10;;;22.40;54.90;;;;;;5026443;28;20108;-82
2022/08/27 01:43:04;;;;;;;1.65;1.23;;;22.30;54.90;;;;;;5013738;28;20156;-81
2022/08/27 01:45:37;;;;;;;1.83;1.20;;;22.30;54.90;;;;;;5012060;28;20114;-84
2022/08/27 01:48:03;;;;;;;1.40;1.10;;;22.30;55.60;;;;;;5026017;28;20037;-82
2022/08/27 01:50:33;;;;;;;1.77;1.10;;;22.30;55.00;;;;;;5026770;28;20120;-82
2022/08/27 01:53:10;;;;;;;1.70;1.10;;;22.30;55.00;;;;;;5040985;28;20021;-82
2022/08/27 01:55:37;;;;;;;1.30;1.05;;;22.30;55.10;;;;;;5019983;28;20022;-82
2022/08/27 01:58:02;;;;;;;2.28;1.10;;;22.30;55.10;;;;;;5029171;28;20100;-82
2022/08/27 02:00:33;;;;;;;1.98;1.20;;;22.20;55.10;;;;;;5024845;28;20057;-80
2022/08/27 02:03:00;;;;;;;1.45;1.10;;;22.20;55.10;;;;;;5007919;28;20029;-82
2022/08/27 02:05:26;;;;;;;1.60;1.13;;;22.20;55.10;;;;;;5011931;28;20068;-82
2022/08/27 02:07:53;;;;;;;1.10;1.00;;;22.20;55.20;;;;;;5025395;28;20021;-82
2022/08/27 02:10:24;;;;;;;1.17;1.02;;;22.20;55.20;;;;;;5012220;28;20064;-81
2022/08/27 02:12:51;;;;;;;1.52;1.02;;;22.20;55.30;;;;;;5027900;28;20025;-82
2022/08/27 02:15:18;;;;;;;1.58;1.10;;;22.20;55.20;;;;;;5028902;28;20140;-81
2022/08/27 02:17:45;;;;;;;1.48;1.13;;;22.20;55.30;;;;;;5032204;28;20038;-82
2022/08/27 02:20:12;;;;;;;1.00;0.93;;;22.10;55.20;;;;;;5027117;28;20056;-81
2022/08/27 02:22:39;;;;;;;1.50;1.27;;;22.10;55.30;;;;;;5024833;28;20033;-82
2022/08/27 02:25:07;;;;;;;1.33;1.00;;;22.10;55.30;;;;;;5028057;28;20053;-83
2022/08/27 02:27:33;;;;;;;1.38;1.15;;;22.10;55.40;;;;;;5027033;28;20118;-81
2022/08/27 02:29:59;;;;;;;1.60;1.10;;;22.10;55.30;;;;;;5011694;28;20163;-82
2022/08/27 02:32:27;;;;;;;1.60;1.13;;;22.10;55.40;;;;;;5025985;28;20662;-83
2022/08/27 02:34:54;;;;;;;1.52;1.17;;;22.10;55.40;;;;;;5009831;28;20030;-82
2022/08/27 02:37:21;;;;;;;1.20;1.10;;;22.10;55.40;;;;;;5027063;28;20073;-83
2022/08/27 02:39:46;;;;;;;2.47;1.27;;;22.10;55.40;;;;;;5025925;28;20355;-82
2022/08/27 02:42:13;;;;;;;1.80;1.20;;;22.10;55.40;;;;;;5012616;28;20057;-81
2022/08/27 02:44:39;;;;;;;1.80;1.08;;;22.10;55.40;;;;;;5011912;28;20112;-85
2022/08/27 02:47:05;;;;;;;1.10;1.00;;;22.00;55.40;;;;;;5027739;28;20124;-83
2022/08/27 02:49:31;;;;;;;2.08;1.30;;;22.00;55.40;;;;;;5013436;28;20042;-82
2022/08/27 02:51:57;;;;;;;1.17;1.00;;;22.10;55.40;;;;;;4996032;28;20510;-82
2022/08/27 02:54:24;;;;;;;2.30;1.20;;;22.00;55.40;;;;;;5013972;28;20025;-81
2022/08/27 02:56:51;;;;;;;1.92;1.20;;;22.00;56.00;;;;;;5029058;28;20049;-81
2022/08/27 02:59:18;;;;;;;1.27;1.10;;;22.00;55.40;;;;;;5034707;28;20108;-82
2022/08/27 03:01:43;;;;;;;1.20;1.10;;;22.00;55.40;;;;;;5014270;28;20032;-82
2022/08/27 03:04:10;;;;;;;2.38;1.30;;;22.00;55.40;;;;;;5014847;28;20485;-81
2022/08/27 03:06:35;;;;;;;2.45;1.27;;;22.00;55.40;;;;;;5031106;28;20083;-81
2022/08/27 03:09:01;;;;;;;2.13;1.17;;;22.00;55.40;;;;;;5010994;28;20033;-82
2022/08/27 03:11:28;;;;;;;1.52;1.23;;;21.90;55.40;;;;;;5030495;28;20040;-82
2022/08/27 03:13:53;;;;;;;1.55;1.13;;;21.90;55.40;;;;;;5010628;28;20033;-81
2022/08/27 03:16:20;;;;;;;1.33;1.08;;;21.90;55.50;;;;;;5030702;28;20064;-81
2022/08/27 03:18:45;;;;;;;2.20;1.30;;;21.90;55.50;;;;;;5029565;28;20037;-82
2022/08/27 03:21:23;;;;;;;1.88;1.30;;;21.90;55.50;;;;;;5012719;28;20038;-82
2022/08/27 03:23:49;;;;;;;2.05;0.95;;;21.90;55.60;;;;;;5010486;28;20030;-82
2022/08/27 03:26:16;;;;;;;2.63;1.20;;;21.90;55.50;;;;;;5029952;28;20042;-82
2022/08/27 03:28:42;;;;;;;1.85;1.30;;;21.80;55.40;;;;;;5014283;28;20124;-84
2022/08/27 03:31:19;;;;;;;1.30;1.10;;;21.80;55.40;;;;;;5030882;28;20028;-82
2022/08/27 03:33:45;;;;;;;1.30;1.20;;;21.80;55.50;;;;;;5014439;28;20112;-82
2022/08/27 03:36:11;;;;;;;2.05;1.30;;;21.80;55.40;;;;;;5028408;28;20025;-81
2022/08/27 03:38:37;;;;;;;1.20;1.10;;;21.80;55.50;;;;;;5030214;28;20044;-81
2022/08/27 03:41:04;;;;;;;1.42;1.00;;;21.80;55.50;;;;;;5029597;28;20083;-81
2022/08/27 03:43:30;;;;;;;1.20;1.10;;;21.80;55.50;;;;;;5028945;28;20087;-82
2022/08/27 03:45:56;;;;;;;2.17;1.20;;;21.80;55.50;;;;;;5031063;28;20726;-82
2022/08/27 03:48:22;;;;;;;1.50;1.10;;;21.70;55.50;;;;;;5009621;28;20176;-82
2022/08/27 03:50:49;;;;;;;1.90;1.25;;;21.70;55.50;;;;;;5026844;28;20105;-82
2022/08/27 03:53:18;;;;;;;1.73;0.90;;;21.70;55.50;;;;;;5025080;28;20459;-82
2022/08/27 03:55:44;;;;;;;1.25;1.13;;;21.70;55.50;;;;;;5012362;28;20117;-82
2022/08/27 03:58:11;;;;;;;1.40;1.20;;;21.70;55.50;;;;;;5011033;28;20569;-82
2022/08/27 04:00:38;;;;;;;1.30;1.05;;;21.70;55.50;;;;;;5027321;28;20068;-82
2022/08/27 04:03:05;;;;;;;1.88;1.25;;;21.60;55.50;;;;;;5028000;28;20030;-82
2022/08/27 04:05:32;;;;;;;1.33;1.15;;;21.70;55.60;;;;;;5026808;28;20029;-82
2022/08/27 04:07:58;;;;;;;1.88;1.30;;;21.60;55.50;;;;;;5010575;28;20056;-82
2022/08/27 04:10:24;;;;;;;1.92;1.23;;;21.60;55.50;;;;;;5025634;28;20021;-82
2022/08/27 04:12:49;;;;;;;1.50;1.10;;;21.60;55.50;;;;;;5009349;28;20038;-82
2022/08/27 04:15:15;;;;;;;2.17;1.20;;;21.60;55.50;;;;;;5027370;28;20029;-81
2022/08/27 04:17:41;;;;;;;1.50;1.02;;;21.60;55.60;;;;;;5013595;28;20041;-83
2022/08/27 04:20:09;;;;;;;1.23;1.13;;;21.60;55.60;;;;;;5012821;28;20040;-83
2022/08/27 04:22:35;;;;;;;2.33;1.05;;;21.60;55.60;;;;;;5025513;28;20057;-81
2022/08/27 04:25:01;;;;;;;2.53;1.20;;;21.60;55.60;;;;;;5008963;28;20033;-82
2022/08/27 04:27:27;;;;;;;1.30;1.20;;;21.50;55.60;;;;;;4995932;28;20040;-82
2022/08/27 04:29:58;;;;;;;1.98;1.20;;;21.50;55.60;;;;;;5010751;28;20078;-82
2022/08/27 04:32:25;;;;;;;2.05;1.60;;;21.50;55.60;;;;;;5027799;28;20049;-82
2022/08/27 04:34:59;;;;;;;1.70;1.27;;;21.50;55.60;;;;;;5027442;28;20025;-82
2022/08/27 04:37:29;;;;;;;1.33;1.20;;;21.50;55.60;;;;;;5027814;28;20081;-82
2022/08/27 04:39:54;;;;;;;1.90;1.30;;;21.50;55.60;;;;;;5029150;28;20033;-83
2022/08/27 04:42:20;;;;;;;2.20;1.50;;;21.50;55.60;;;;;;4996915;28;20041;-81
2022/08/27 04:44:46;;;;;;;2.03;1.27;;;21.50;55.60;;;;;;5012974;28;20025;-82
2022/08/27 04:47:13;;;;;;;2.03;1.17;;;21.50;55.60;;;;;;5006878;28;20050;-81
2022/08/27 04:49:39;;;;;;;2.17;1.42;;;21.40;55.60;;;;;;5011434;28;20049;-83
2022/08/27 04:52:05;;;;;;;2.47;1.40;;;21.40;55.60;;;;;;5031653;28;20037;-82
2022/08/27 04:54:31;;;;;;;1.73;1.35;;;21.40;55.60;;;;;;5013046;28;20037;-82
2022/08/27 04:56:57;;;;;;;1.60;1.40;;;21.40;55.70;;;;;;4994470;28;20041;-82
2022/08/27 04:59:23;;;;;;;1.85;1.30;;;21.40;55.70;;;;;;5009847;28;20033;-83
2022/08/27 05:01:49;;;;;;;1.98;1.27;;;21.40;55.70;;;;;;5029216;28;20488;-82
2022/08/27 05:04:17;;;;;;;1.92;1.50;;;21.40;55.70;;;;;;5029262;28;20124;-81
2022/08/27 05:06:44;;;;;;;2.17;1.40;;;21.40;55.70;;;;;;5028833;28;20026;-82
2022/08/27 05:09:12;;;;;;;2.22;1.30;;;21.40;55.70;;;;;;5009580;28;20026;-82
2022/08/27 05:11:38;;;;;;;1.90;1.50;;;21.30;55.70;;;;;;5007198;28;20025;-81
2022/08/27 05:14:06;;;;;;;2.03;1.30;;;21.40;55.80;;;;;;5025693;28;21094;-82
2022/08/27 05:16:35;;;;;;;1.92;1.30;;;21.30;55.70;;;;;;5028498;28;20045;-82
2022/08/27 05:19:02;;;;;;;2.15;1.40;;;21.30;55.70;;;;;;5028892;28;20038;-82
2022/08/27 05:21:30;;;;;;;1.77;1.30;;;21.30;55.70;;;;;;5029121;28;20030;-82
2022/08/27 05:23:58;;;;;;;1.83;1.25;;;21.30;55.80;;;;;;5029921;28;20032;-81
2022/08/27 05:26:26;;;;;;;2.53;1.60;;;21.30;55.80;;;;;;5010866;28;20033;-82
2022/08/27 05:28:52;;;;;;;1.58;1.25;;;21.30;55.80;;;;;;5023980;28;20087;-82
2022/08/27 05:31:19;;;;;;;2.10;1.35;;;21.30;55.80;;;;;;5011216;28;20029;-81
2022/08/27 05:33:46;;;;;;;2.00;1.40;;;21.20;55.80;;;;;;5009876;28;20021;-82
2022/08/27 05:36:21;;;;;;;1.55;1.20;;;21.20;55.80;;;;;;5028721;28;20033;-81
2022/08/27 05:38:48;;;;;;;2.25;1.35;;;21.20;55.90;;;;;;5017200;28;20072;-80
2022/08/27 05:41:17;;;;;;;1.63;1.40;;;21.20;55.90;;;;;;5030713;28;20113;-81
2022/08/27 05:43:43;;;;;;;2.53;1.55;;;21.20;55.90;;;;;;5031194;28;20026;-81
2022/08/27 05:46:12;;;;;;;2.17;1.50;;;21.20;55.90;;;;;;5026468;28;20115;-82
2022/08/27 05:48:40;;;;;;;1.30;1.10;;;21.20;55.90;;;;;;5010327;28;20389;-81
2022/08/27 05:51:28;;;;;;;1.48;1.30;;;21.20;55.90;;;;;;4993508;28;20029;-82
2022/08/27 05:54:05;;;;;;;2.10;1.30;;;21.20;56.10;;;;;;5041520;28;20502;-82
2022/08/27 05:56:34;;;;;;;1.67;1.20;;;21.20;56.00;;;;;;5022176;28;20030;-82
2022/08/27 06:01:50;;;;;;;1.65;1.25;;;21.10;55.90;;;;;;5028680;28;20036;-81
2022/08/27 06:04:19;;;;;;;1.40;1.30;;;21.10;56.00;;;;;;5025880;28;20033;-81
2022/08/27 06:06:45;;;;;;;2.95;1.60;;;21.10;56.00;;;;;;5029739;28;20569;-82
2022/08/27 06:09:14;;;;;;;2.50;1.60;;;21.10;56.00;;;;;;5029235;28;20090;-83
2022/08/27 06:11:39;;;;;;;2.17;1.40;;;21.10;56.00;;;;;;5025206;28;20132;-83
2022/08/27 06:14:07;;;;;;;1.83;1.42;;;21.10;56.00;;;;;;4989529;28;20121;-82
2022/08/27 06:16:34;;;;;;;2.45;1.40;;;21.10;56.00;;;;;;5012901;28;20120;-83
2022/08/27 06:19:00;;;;;;;2.00;1.30;;;21.10;56.10;;;;;;5011299;28;20065;-82
2022/08/27 06:21:26;;;;;;;2.03;1.45;;;21.10;56.10;;;;;;5016461;28;20053;-81
2022/08/27 06:23:53;;;;;;;2.47;1.42;;;21.00;56.00;;;;;;5029746;28;20595;-83
2022/08/27 06:26:21;;;;;;;2.33;1.17;;;21.10;56.10;;;;;;5031451;28;20124;-82
2022/08/27 06:28:47;;;;;;;1.77;1.40;;;21.00;56.10;;;;;;5031863;28;20025;-82
2022/08/27 06:31:16;;;;;;;2.72;1.65;;;21.00;56.10;;;;;;5030816;28;20052;-82
2022/08/27 06:33:43;;;;;;;2.35;1.40;;;21.00;56.10;;;;;;5028952;28;20052;-82
2022/08/27 06:36:11;;;;;;;1.58;1.40;;;21.00;56.10;;;;;;5011971;28;20026;-82
2022/08/27 06:38:37;;;;;;;1.48;1.30;;;21.00;56.10;;;;;;5012731;28;20394;-82
2022/08/27 06:41:07;;;;;;;1.70;1.30;;;21.00;56.10;;;;;;5029680;28;20529;-84
2022/08/27 06:43:37;;;;;;;2.28;1.38;;;21.00;56.20;;;;;;5028048;28;20473;-83
2022/08/27 06:46:06;;;;;;;1.77;1.40;;;21.00;56.20;;;;;;5029291;28;20055;-84
2022/08/27 06:48:33;;;;;;;2.00;1.48;;;21.00;56.20;;;;;;5029771;28;20029;-84
2022/08/27 06:50:59;;;;;;;1.88;1.30;;;21.00;56.20;;;;;;5013488;28;20044;-83
2022/08/27 06:53:25;;;;;;;2.53;1.38;;;21.00;56.20;;;;;;5013708;28;20064;-82
2022/08/27 06:55:51;;;;;;;1.48;1.17;;;21.00;56.20;;;;;;5029464;28;20025;-82
2022/08/27 06:58:18;;;;;;;1.58;1.40;;;21.00;56.20;;;;;;5011713;28;20086;-82
2022/08/27 07:00:44;;;;;;;1.48;1.08;;;21.00;56.20;;;;;;5028279;28;20449;-82
2022/08/27 07:03:10;;;;;;;1.42;1.10;;;21.00;56.20;;;;;;5027413;28;20033;-82
2022/08/27 07:05:38;;;;;;;3.00;1.27;;;21.00;56.80;;;;;;5029776;28;20034;-82
2022/08/27 07:08:06;;;;;;;2.15;1.30;;;21.00;56.20;;;;;;5028335;28;20029;-84
2022/08/27 07:10:33;;;;;;;1.85;1.25;;;21.00;56.20;;;;;;5030769;28;20040;-82
2022/08/27 07:12:59;;;;;;;1.70;1.20;;;21.00;56.20;;;;;;5033304;28;20022;-82
2022/08/27 07:15:25;;;;;;;1.58;1.20;;;21.00;56.20;;;;;;5035529;28;20470;-84
2022/08/27 07:17:52;;;;;;;1.88;1.10;;;21.00;56.20;;;;;;5030320;28;20701;-83
2022/08/27 07:20:19;;;;;;;2.38;1.40;;;21.00;56.20;;;;;;5015446;28;20026;-83
2022/08/27 07:22:45;;;;;;;1.42;1.10;;;21.00;56.20;;;;;;5027933;28;20024;-83
2022/08/27 07:25:14;;;;;;;1.90;1.13;;;21.00;56.20;;;;;;5032821;28;20021;-82
2022/08/27 07:27:40;;;;;;;1.17;1.08;;;21.00;56.30;;;;;;5031088;28;20119;-83
2022/08/27 07:30:11;;;;;;;2.35;1.30;;;21.00;56.30;;;;;;5026773;28;20048;-83
2022/08/27 07:32:37;;;;;;;1.50;1.27;;;21.10;56.30;;;;;;5034243;28;20151;-82
2022/08/27 07:35:08;;;;;;;1.05;0.95;;;21.10;56.40;;;;;;5035513;28;20029;-80
2022/08/27 07:37:38;;;;;;;1.48;1.20;;;21.10;56.30;;;;;;5040064;28;20053;-81
2022/08/27 07:40:07;;;;;;;1.95;1.20;;;21.10;56.40;;;;;;5034304;28;20037;-83
2022/08/27 07:45:18;;;;;;;1.10;1.00;;;21.00;56.30;;;;;;5017056;28;20151;-82
2022/08/27 07:47:43;;;;;;;2.40;1.23;;;21.10;56.30;;;;;;5030020;28;20291;-81
2022/08/27 07:50:09;;;;;;;2.00;1.23;;;21.10;56.40;;;;;;5028435;28;20374;-81
2022/08/27 07:52:35;;;;;;;1.50;1.15;;;21.10;56.40;;;;;;5028554;28;20033;-81
2022/08/27 07:55:01;;;;;;;1.77;1.10;;;21.10;56.40;;;;;;5013419;28;20098;-81
2022/08/27 07:57:27;;;;;;;1.83;1.20;;;21.10;56.40;;;;;;5028398;28;20092;-81
2022/08/27 07:59:53;;;;;;;1.73;1.05;;;21.10;56.40;;;;;;4997054;28;20033;-81
2022/08/27 08:02:18;;;;;;;1.00;0.85;;;21.10;56.40;;;;;;4999631;28;20017;-82
2022/08/27 08:04:45;;;;;;;1.40;1.00;;;21.20;56.40;;;;;;5027955;28;20382;-82
2022/08/27 08:07:11;;;;;;;1.00;0.90;;;21.20;56.40;;;;;;5029283;28;20108;-83
2022/08/27 08:09:37;;;;;;;1.55;1.20;;;21.20;56.40;;;;;;5010878;28;20040;-82
2022/08/27 08:12:03;;;;;;;1.02;0.85;;;21.20;56.40;;;;;;5031023;28;20048;-83
2022/08/27 08:14:31;;;;;;;1.73;1.30;;;21.20;56.40;;;;;;5017429;28;20029;-83
2022/08/27 08:17:03;;;;;;;1.60;1.00;;;21.20;56.40;;;;;;5029377;28;20041;-82
2022/08/27 08:19:29;;;;;;;1.92;1.10;;;21.20;56.40;;;;;;4998999;28;20270;-82
2022/08/27 08:21:55;;;;;;;1.63;1.05;;;21.30;56.30;;;;;;5014689;28;20029;-82
2022/08/27 08:24:21;;;;;;;1.05;0.95;;;21.30;56.30;;;;;;4997066;28;20029;-84
2022/08/27 08:26:47;;;;;;;1.85;1.10;;;21.30;56.30;;;;;;5030240;28;20516;-82
2022/08/27 08:29:13;;;;;;;1.75;1.00;;;21.30;56.30;;;;;;5030545;28;20021;-84
2022/08/27 08:31:42;;;;;;;2.85;1.02;;;21.40;56.30;;;;;;5028248;28;20150;-82
2022/08/27 08:34:08;;;;;;;1.17;0.90;;;21.40;56.30;;;;;;5029613;28;20037;-81
2022/08/27 08:36:35;;;;;;;1.05;0.88;;;21.50;56.20;;;;;;5029448;28;20032;-80
2022/08/27 08:39:00;;;;;;;0.95;0.88;;;21.50;56.20;;;;;;4996755;28;20077;-81
2022/08/27 08:41:38;;;;;;;1.38;1.00;;;21.50;56.10;;;;;;5013433;28;20487;-80
2022/08/27 08:44:31;;;;;;;1.00;0.90;;;21.60;56.10;;;;;;5028126;28;20053;-82
2022/08/27 08:47:10;;;;;;;1.20;1.00;;;21.70;56.00;;;;;;5029743;28;20044;-83
2022/08/27 08:49:42;;;;;;;0.90;0.90;;;21.70;55.90;;;;;;5031810;28;20029;-84
2022/08/27 08:52:26;;;;;;;1.88;1.17;;;21.80;55.90;;;;;;5032059;28;20061;-86
2022/08/27 08:55:05;;;;;;;1.00;0.77;;;21.90;55.90;;;;;;5026570;28;20037;-83
2022/08/27 08:57:38;;;;;;;1.15;0.90;;;21.90;55.70;;;;;;5029924;28;20478;-81
2022/08/27 09:00:11;;;;;;;1.35;0.98;;;22.00;55.70;;;;;;5030724;28;20037;-83
2022/08/27 09:02:38;;;;;;;2.00;0.90;;;22.10;55.70;;;;;;5025697;28;20037;-83
2022/08/27 09:05:08;;;;;;;1.27;0.90;;;22.10;55.60;;;;;;5029765;28;20514;-82
2022/08/27 09:07:49;;;;;;;1.42;1.15;;;22.20;55.60;;;;;;5029350;28;20037;-83
2022/08/27 09:10:20;;;;;;;1.52;0.85;;;22.20;55.60;;;;;;5030402;28;20126;-84
2022/08/27 09:12:46;;;;;;;1.00;0.88;;;22.30;55.50;;;;;;5033686;28;20061;-82
2022/08/27 09:15:14;;;;;;;1.35;0.80;;;22.40;55.40;;;;;;5013183;28;20060;-83
2022/08/27 09:17:40;;;;;;;1.15;0.77;;;22.50;55.40;;;;;;5011553;28;20041;-84
2022/08/27 09:20:08;;;;;;;0.60;0.60;;;22.50;55.30;;;;;;5030518;28;20028;-83
2022/08/27 09:22:49;;;;;;;1.15;0.80;;;22.60;55.20;;;;;;5029357;28;20033;-84
2022/08/27 09:25:34;;;;;;;1.95;1.00;;;22.70;55.30;;;;;;5026594;28;20026;-84
2022/08/27 09:28:03;;;;;;;1.77;0.90;;;22.80;55.20;;;;;;5028639;28;20128;-83
2022/08/27 09:30:32;;;;;;;1.15;0.90;;;22.80;55.00;;;;;;5029203;28;20022;-83
2022/08/27 09:33:03;;;;;;;1.92;1.00;;;22.90;55.00;;;;;;5011381;28;20033;-85
2022/08/27 09:35:44;;;;;;;1.00;0.90;;;22.90;54.90;;;;;;5027371;28;20409;-83
2022/08/27 09:38:12;;;;;;;1.80;1.00;;;23.00;55.00;;;;;;5045432;28;20502;-82
2022/08/27 09:40:47;;;;;;;1.13;0.85;;;23.10;54.80;;;;;;5030374;28;20026;-83
2022/08/27 09:43:15;;;;;;;0.82;0.75;;;23.10;54.80;;;;;;5025941;28;20029;-83
2022/08/27 09:45:51;;;;;;;0.95;0.85;;;23.20;54.70;;;;;;5011724;28;20076;-84
2022/08/27 09:48:25;;;;;;;1.00;0.88;;;23.20;54.60;;;;;;5012368;28;20036;-84
2022/08/27 09:51:08;;;;;;;1.58;0.90;;;23.30;54.60;;;;;;5007679;28;20642;-82
2022/08/27 09:53:51;;;;;;;2.13;0.98;;;23.30;54.40;;;;;;5028136;28;20546;-82
2022/08/27 09:56:28;;;;;;;1.98;1.02;;;23.40;54.40;;;;;;5017243;28;20030;-80
2022/08/27 09:59:01;;;;;;;1.02;0.80;;;23.50;54.30;;;;;;5035280;28;20120;-81
2022/08/27 10:01:30;;;;;;;0.68;0.68;;;23.50;54.20;;;;;;5016375;28;20370;-82
2022/08/27 10:04:04;;;;;;;0.80;0.80;;;23.60;54.10;;;;;;5033978;28;20434;-81
2022/08/27 10:06:31;;;;;;;1.13;0.80;;;23.70;54.10;;;;;;5034740;28;20060;-81
2022/08/27 10:09:18;;;;;;;1.20;0.90;;;23.80;53.90;;;;;;5032563;28;20017;-81
2022/08/27 10:11:58;;;;;;;1.35;0.98;;;23.90;53.90;;;;;;5033924;28;20532;-81
2022/08/27 10:14:31;;;;;;;1.77;0.90;;;24.00;53.70;;;;;;5034602;28;20037;-81
2022/08/27 10:17:10;;;;;;;1.15;0.80;;;24.00;53.60;;;;;;5031794;28;20025;-81
2022/08/27 10:20:02;;;;;;;1.15;0.80;;;24.10;53.60;;;;;;5031556;28;20028;-82
2022/08/27 10:22:58;;;;;;;0.80;0.80;;;24.20;53.60;;;;;;5035297;28;20021;-82
2022/08/27 10:25:36;;;;;;;1.58;0.75;;;24.20;53.50;;;;;;5052855;28;20034;-81
2022/08/27 10:28:35;;;;;;;1.00;0.85;;;24.30;53.40;;;;;;5032523;28;20040;-82
2022/08/27 10:31:26;;;;;;;0.95;0.77;;;24.40;53.50;;;;;;5031395;28;20471;-81
2022/08/27 10:34:21;;;;;;;1.10;0.90;;;24.40;53.40;;;;;;5031572;28;20025;-83
2022/08/27 10:36:59;;;;;;;1.38;0.75;;;24.50;53.40;;;;;;5031827;28;20110;-81
2022/08/27 10:39:31;;;;;;;0.60;0.60;;;24.50;53.30;;;;;;5032515;28;20037;-81
2022/08/27 10:42:16;;;;;;;1.10;0.90;;;24.60;53.40;;;;;;5030153;28;20382;-81
2022/08/27 10:45:07;;;;;;;2.05;1.00;;;24.60;53.40;;;;;;5017488;28;20036;-81
2022/08/27 10:48:01;;;;;;;1.20;0.95;;;24.60;53.40;;;;;;5031244;28;20083;-81
2022/08/27 10:50:30;;;;;;;1.40;0.65;;;24.60;53.40;;;;;;5038677;28;20024;-82
2022/08/27 10:53:10;;;;;;;1.05;0.80;;;24.70;53.30;;;;;;5031826;28;20029;-83
2022/08/27 10:55:44;;;;;;;1.42;0.98;;;24.70;53.30;;;;;;5029289;28;20043;-83
2022/08/27 10:59:09;;;;;;;0.88;0.85;;;24.80;53.30;;;;;;5015197;28;20385;-82
2022/08/27 11:01:46;;;;;;;1.08;0.95;;;24.80;53.30;;;;;;4959713;28;20563;-83
2022/08/27 11:04:27;;;;;;;1.73;0.98;;;24.80;53.10;;;;;;5021546;28;20033;-82
2022/08/27 11:07:13;;;;;;;2.08;1.10;;;24.90;53.20;;;;;;5031552;28;20080;-80
2022/08/27 11:09:44;;;;;;;1.35;0.95;;;24.90;53.20;;;;;;5027445;28;20080;-83
2022/08/27 11:12:14;;;;;;;1.30;1.00;;;24.90;53.20;;;;;;5031637;28;20029;-82
2022/08/27 11:14:53;;;;;;;1.38;0.88;;;25.00;53.10;;;;;;5045531;28;20033;-82
2022/08/27 11:17:42;;;;;;;1.42;0.88;;;25.00;53.10;;;;;;5028982;28;20053;-81
2022/08/27 11:20:23;;;;;;;1.33;0.90;;;25.00;53.10;;;;;;5026525;28;20029;-79
2022/08/27 11:22:58;;;;;;;2.42;0.90;;;25.10;53.00;;;;;;5030237;28;20021;-80
2022/08/27 11:25:49;;;;;;;1.02;0.85;;;25.10;53.00;;;;;;5029525;28;20030;-79
2022/08/27 11:28:21;;;;;;;1.00;0.80;;;25.10;52.90;;;;;;5030198;28;20102;-79
2022/08/27 11:30:47;;;;;;;0.80;0.70;;;25.20;52.90;;;;;;5044737;28;20096;-81
2022/08/27 11:33:51;;;;;;;1.42;0.88;;;25.20;52.90;;;;;;5011021;28;20164;-79
2022/08/27 11:36:31;;;;;;;1.33;0.77;;;25.20;52.90;;;;;;5043101;28;20040;-80
2022/08/27 11:39:03;;;;;;;0.70;0.70;;;25.30;52.80;;;;;;5028576;28;20045;-79
2022/08/27 11:42:00;;;;;;;1.25;0.90;;;25.30;52.70;;;;;;5028966;28;20064;-80
2022/08/27 11:44:26;;;;;;;1.20;0.90;;;25.30;52.80;;;;;;5031501;28;20038;-82
2022/08/27 11:47:08;;;;;;;1.98;0.95;;;25.40;52.70;;;;;;5040062;28;20022;-84
2022/08/27 11:49:50;;;;;;;1.42;0.90;;;25.40;52.70;;;;;;5039385;28;20021;-83
2022/08/27 11:52:40;;;;;;;0.88;0.70;;;25.40;52.60;;;;;;5034639;28;20110;-84
2022/08/27 11:55:36;;;;;;;1.17;0.90;;;25.40;52.60;;;;;;5039452;28;20053;-83
2022/08/27 11:58:04;;;;;;;1.65;0.70;;;25.50;52.70;;;;;;5030139;28;20068;-83
2022/08/27 12:00:32;;;;;;;1.13;0.90;;;25.50;52.50;;;;;;5014929;28;20381;-84
2022/08/27 12:03:18;;;;;;;2.35;0.88;;;25.50;52.50;;;;;;5034320;28;20544;-85
2022/08/27 12:05:53;;;;;;;1.02;0.82;;;25.50;52.50;;;;;;5032280;28;20032;-83
2022/08/27 12:08:25;;;;;;;1.17;0.80;;;25.60;52.50;;;;;;5017905;28;20041;-83
2022/08/27 12:11:30;;;;;;;1.88;1.00;;;25.60;52.50;;;;;;5029325;28;20025;-83
2022/08/27 12:14:03;;;;;;;1.95;0.80;;;25.60;52.50;;;;;;5027103;28;20071;-83
2022/08/27 12:16:53;;;;;;;1.08;0.98;;;25.60;52.40;;;;;;5032870;28;20032;-83
2022/08/27 12:19:55;;;;;;;2.13;0.90;;;25.60;52.40;;;;;;5026678;28;20045;-83
2022/08/27 12:23:38;;;;;;;1.00;0.70;;;25.70;52.50;;;;;;5029796;28;20033;-83
2022/08/27 12:25:22;;;;;;;1.52;0.90;;;25.70;52.50;;;;;;5030750;28;20092;-83
2022/08/27 12:28:03;;;;;;;1.05;0.90;;;25.70;52.50;;;;;;5033999;28;20079;-82
2022/08/27 12:30:40;;;;;;;1.02;0.85;;;25.70;52.50;;;;;;5029015;28;20021;-83
2022/08/27 12:33:35;;;;;;;1.15;0.75;;;25.80;52.50;;;;;;5031296;28;20025;-82
2022/08/27 12:36:19;;;;;;;1.55;0.90;;;25.80;52.40;;;;;;5024919;28;20042;-83
2022/08/27 12:38:52;;;;;;;2.40;1.08;;;25.80;52.40;;;;;;5046027;28;20049;-82
2022/08/27 12:41:25;;;;;;;1.48;0.85;;;25.90;52.40;;;;;;5029559;28;20493;-82
2022/08/27 12:44:02;;;;;;;1.45;0.90;;;25.90;52.40;;;;;;5034748;28;20025;-82
2022/08/27 12:46:28;;;;;;;1.40;0.82;;;25.90;52.40;;;;;;5031351;28;20116;-82
2022/08/27 12:49:00;;;;;;;1.10;0.80;;;25.90;52.30;;;;;;5029992;28;20112;-83
2022/08/27 12:51:38;;;;;;;0.98;0.80;;;25.90;52.30;;;;;;5029859;28;20036;-83
2022/08/27 12:54:41;;;;;;;2.25;0.90;;;26.00;52.30;;;;;;5031069;28;20100;-83
2022/08/27 12:57:31;;;;;;;1.40;0.60;;;26.00;52.40;;;;;;5030377;28;20025;-82
2022/08/27 13:00:34;;;;;;;1.17;0.88;;;26.00;52.30;;;;;;5031019;28;20063;-83
2022/08/27 13:03:11;;;;;;;0.93;0.77;;;26.00;52.30;;;;;;5024498;28;20037;-84
2022/08/27 13:05:41;;;;;;;0.73;0.70;;;26.00;52.20;;;;;;5030684;28;20147;-83
2022/08/27 13:08:21;;;;;;;1.55;0.90;;;26.00;52.10;;;;;;5029175;28;20057;-84
2022/08/27 13:10:49;;;;;;;1.98;1.13;;;26.00;52.10;;;;;;5023726;28;20397;-83
2022/08/27 13:13:17;;;;;;;2.30;0.90;;;26.10;52.10;;;;;;5031926;28;20021;-83
2022/08/27 13:15:55;;;;;;;1.60;0.90;;;26.10;52.00;;;;;;5029919;28;20102;-83